Appleton, Washington
Current Conditions -  °F | °C
As of 4:53 PM on Monday 22 Dec 2014 (Local Time) from KDLS Reporting Station
Overcast Overcast  
Wind Chill: 11°   Ceiling: 12000
Heat Index: 11°   Visibility: 10mi
Dew Point:   Wind: 10mph
Humidity: 61%   Direction: 330°NNW
Pressure: 30.33"   Gusts: NA
Location:  45.81°N, 121.27°W
Report Text: KDLS 230053Z AUTO 33009KT 10SM OVC120 11/04 A3033 RMK AO2 SLP271 T01110039
Loading
Personal Weather Stations






























Interactive Weather Map New forecast layout! Learn more

10-Day Weather Forecast

Advertisements
Track Severe Weather on mobile